KSBD/SBD METAR and TAF weather

Enter ICAO airport designator
Station Type Date Time Source
KSBD METAR 2022/06/25 22:51 UTC NOAA

KSBD 252251Z 24008G16KT 10SM CLR 38/02 A2985


Station Type Date Time Source
KSBD Decoded METAR 2022/06/25 22:51 UTC NOAA

Norton Air Force Base / San Bern, CA, United States (KSBD) 34-06N 117-14W
Jun 25, 2022 - 06:51 PM EDT / 2022.06.25 2251 UTC
Wind: from the WSW (240 degrees) at 9 MPH (8 KT) gusting to 18 MPH (16 KT):0
Visibility: 10 mile(s):0
Sky conditions: clear
Temperature: 100 F (38 C)
Dew Point: 35 F (2 C)
Relative Humidity: 10%
Pressure (altimeter): 29.85 in. Hg (1010 hPa)
ob: KSBD 252251Z 24008G16KT 10SM CLR 38/02 A2985
cycle: 23

Station Type Date Time Source
KSBD TAF 2022/06/25 18:34 UTC NOAA

TAF KSBD 251732Z 2518/2618 VRB04KT P6SM SKC
FM252100 25011KT P6SM SKC
FM260400 VRB04KT P6SM SKC

Example: see airport list